createdAt,value
2019-02-07T00:00:25.903Z,90.93
2019-02-07T00:02:54.355Z,91.93
2019-02-07T00:05:22.713Z,85.60
2019-02-07T00:07:51.179Z,81.37
2019-02-07T00:10:20.410Z,92.03
2019-02-07T00:12:48.830Z,87.40
2019-02-07T00:15:17.589Z,82.37
2019-02-07T00:17:45.961Z,87.13
2019-02-07T00:20:18.773Z,88.73
2019-02-07T00:22:47.151Z,83.87
2019-02-07T00:25:15.610Z,81.93
2019-02-07T00:27:44.017Z,84.73
2019-02-07T00:30:18.625Z,85.10
2019-02-07T00:32:47.008Z,73.87
2019-02-07T00:35:15.417Z,88.53
2019-02-07T00:37:43.884Z,77.10
2019-02-07T00:40:19.158Z,88.27
2019-02-07T00:42:47.764Z,80.00
2019-02-07T00:45:17.602Z,81.03
2019-02-07T00:47:45.987Z,77.63
2019-02-07T00:50:15.905Z,75.73
2019-02-07T00:52:44.325Z,81.47
2019-02-07T00:55:15.295Z,76.80
2019-02-07T00:57:47.582Z,79.87
2019-02-07T01:00:26.669Z,71.23
2019-02-07T01:02:55.064Z,73.90
2019-02-07T01:05:23.529Z,67.40
2019-02-07T01:07:52.186Z,66.80
2019-02-07T01:10:26.567Z,71.67
2019-02-07T01:13:01.567Z,82.13
2019-02-07T01:15:29.926Z,77.87
2019-02-07T01:17:58.349Z,79.97
2019-02-07T01:20:26.856Z,85.63
2019-02-07T01:22:55.841Z,79.00
2019-02-07T01:25:25.057Z,83.73
2019-02-07T01:27:53.789Z,82.33
2019-02-07T01:30:24.477Z,78.50
2019-02-07T01:32:53.002Z,77.73
2019-02-07T01:35:21.412Z,68.50
2019-02-07T01:37:50.410Z,66.13
2019-02-07T01:40:20.805Z,64.70
2019-02-07T01:42:49.309Z,62.13
2019-02-07T01:45:22.750Z,63.07
2019-02-07T01:47:51.245Z,53.70
2019-02-07T01:50:24.109Z,55.13
2019-02-07T01:52:52.681Z,51.27
2019-02-07T01:55:21.168Z,49.00
2019-02-07T01:57:49.544Z,49.70
2019-02-07T02:00:18.860Z,41.63
2019-02-07T02:02:47.404Z,46.00
2019-02-07T02:05:18.145Z,44.00
2019-02-07T02:07:48.961Z,47.53
2019-02-07T02:10:23.180Z,44.50
2019-02-07T02:12:51.548Z,45.43
2019-02-07T02:15:24.716Z,40.97
2019-02-07T02:17:51.043Z,48.93
2019-02-07T02:20:21.378Z,49.80
2019-02-07T02:22:49.895Z,45.70
2019-02-07T02:25:18.333Z,47.73
2019-02-07T02:27:46.800Z,51.20
2019-02-07T02:30:26.312Z,55.23
2019-02-07T02:32:54.702Z,52.37
2019-02-07T02:35:23.486Z,54.13
2019-02-07T02:37:51.924Z,52.90
2019-02-07T02:40:20.249Z,53.90
2019-02-07T02:42:48.644Z,61.33
2019-02-07T02:45:22.331Z,53.20
2019-02-07T02:47:50.915Z,50.17
2019-02-07T02:50:19.972Z,51.90
2019-02-07T02:52:48.465Z,53.60
2019-02-07T02:55:30.392Z,52.43
2019-02-07T02:57:58.796Z,56.93
2019-02-07T03:00:40.693Z,64.53
2019-02-07T03:03:19.434Z,52.97
2019-02-07T03:05:49.515Z,50.80
2019-02-07T03:08:19.539Z,52.90
2019-02-07T03:11:01.688Z,52.23
2019-02-07T03:13:37.390Z,51.40
2019-02-07T03:16:13.042Z,50.73
2019-02-07T03:18:45.903Z,53.67
2019-02-07T03:21:16.485Z,52.03
2019-02-07T03:23:49.427Z,51.53
2019-02-07T03:26:25.034Z,54.93
2019-02-07T03:28:55.082Z,55.30
2019-02-07T03:31:41.240Z,52.70
2019-02-07T03:34:13.914Z,50.60
2019-02-07T03:36:52.548Z,54.33
2019-02-07T03:39:22.604Z,47.90
2019-02-07T03:42:01.452Z,49.97
2019-02-07T03:44:31.487Z,55.23
2019-02-07T03:47:11.566Z,53.63
2019-02-07T03:49:44.393Z,50.00
2019-02-07T03:52:30.827Z,51.40
2019-02-07T03:55:09.509Z,49.27
2019-02-07T03:57:42.321Z,49.77
2019-02-07T04:00:13.023Z,49.87
2019-02-07T04:02:45.772Z,51.33
2019-02-07T04:05:24.808Z,49.30
2019-02-07T04:08:03.653Z,52.17
2019-02-07T04:10:36.432Z,45.43
2019-02-07T04:13:22.732Z,49.77
2019-02-07T04:16:15.123Z,50.70
2019-02-07T04:18:40.786Z,49.07
2019-02-07T04:21:13.725Z,50.70
2019-02-07T04:23:55.821Z,52.03
2019-02-07T04:26:34.835Z,53.50
2019-02-07T04:29:10.590Z,50.33
2019-02-07T04:31:40.619Z,52.40
2019-02-07T04:34:16.673Z,51.97
2019-02-07T04:36:46.755Z,76.67
2019-02-07T04:39:17.129Z,58.93
2019-02-07T04:41:49.737Z,65.33
2019-02-07T04:44:19.865Z,66.57
2019-02-07T04:46:58.997Z,58.20
2019-02-07T04:49:31.520Z,60.47
2019-02-07T04:52:17.618Z,60.67
2019-02-07T04:54:56.203Z,57.30
2019-02-07T04:57:31.957Z,63.83
2019-02-07T05:00:16.830Z,59.93
2019-02-07T05:02:52.742Z,57.93
2019-02-07T05:05:31.899Z,60.47
2019-02-07T05:08:18.814Z,59.87
2019-02-07T05:10:48.823Z,57.67
2019-02-07T05:13:21.920Z,62.97
2019-02-07T05:16:00.864Z,63.30
2019-02-07T05:18:30.986Z,61.63
2019-02-07T05:21:01.111Z,65.30
2019-02-07T05:23:31.108Z,56.70
2019-02-07T05:26:07.092Z,53.47
2019-02-07T05:28:47.021Z,53.53
2019-02-07T05:31:17.216Z,50.43
2019-02-07T05:33:47.282Z,46.93
2019-02-07T05:36:29.283Z,52.53
2019-02-07T05:38:59.283Z,45.50
2019-02-07T05:41:29.323Z,46.80
2019-02-07T05:44:05.413Z,53.93
2019-02-07T05:46:53.461Z,50.73
2019-02-07T05:49:24.091Z,52.03
2019-02-07T05:52:03.331Z,54.10
2019-02-07T05:54:45.289Z,49.27
2019-02-07T05:57:33.326Z,45.43
2019-02-07T06:00:18.338Z,46.77
2019-02-07T06:02:48.378Z,41.90
2019-02-07T06:05:18.373Z,45.37
2019-02-07T06:08:05.739Z,42.77
2019-02-07T06:10:39.329Z,44.10
2019-02-07T06:13:12.305Z,43.53
2019-02-07T06:15:45.141Z,46.90
2019-02-07T06:18:17.690Z,47.90
2019-02-07T06:20:47.721Z,37.23
2019-02-07T06:23:35.691Z,40.23
2019-02-07T06:26:08.864Z,45.77
2019-02-07T06:28:45.049Z,48.30
2019-02-07T06:31:15.190Z,40.53
2019-02-07T06:33:57.104Z,46.17
2019-02-07T06:36:31.089Z,44.90
2019-02-07T06:39:01.201Z,41.50
2019-02-07T06:41:31.481Z,46.10
2019-02-07T06:44:16.863Z,43.17
2019-02-07T06:46:49.973Z,42.23
2019-02-07T06:49:20.026Z,44.37
2019-02-07T06:51:56.023Z,41.43
2019-02-07T06:54:41.886Z,46.33
2019-02-07T06:57:12.095Z,39.40
2019-02-07T06:59:42.140Z,42.20
2019-02-07T07:02:28.510Z,43.53
2019-02-07T07:04:58.685Z,42.53
2019-02-07T07:07:45.205Z,41.10
2019-02-07T07:10:27.380Z,41.47
2019-02-07T07:13:06.676Z,39.20
2019-02-07T07:15:53.114Z,41.10
2019-02-07T07:18:23.137Z,34.93
2019-02-07T07:21:05.690Z,35.83
2019-02-07T07:23:51.713Z,36.13
2019-02-07T07:26:37.674Z,34.73
2019-02-07T07:29:07.666Z,34.53
2019-02-07T07:31:37.700Z,31.20
2019-02-07T07:34:24.302Z,35.23
2019-02-07T07:37:03.485Z,29.40
2019-02-07T07:39:50.393Z,33.77
2019-02-07T07:42:26.520Z,33.33
2019-02-07T07:44:59.590Z,33.03
2019-02-07T07:47:36.146Z,33.33
2019-02-07T07:50:07.711Z,31.17
2019-02-07T07:52:37.750Z,31.10
2019-02-07T07:55:14.585Z,31.90
2019-02-07T07:57:56.572Z,32.73
2019-02-07T08:00:41.441Z,29.67
2019-02-07T08:03:26.437Z,33.73
2019-02-07T08:06:14.628Z,34.60
2019-02-07T08:08:48.082Z,31.60
2019-02-07T08:11:20.888Z,34.20
2019-02-07T08:13:56.301Z,29.93
2019-02-07T08:16:35.296Z,31.03
2019-02-07T08:19:14.530Z,32.43
2019-02-07T08:21:44.712Z,33.27
2019-02-07T08:24:20.792Z,28.03
2019-02-07T08:27:02.818Z,27.83
2019-02-07T08:29:35.698Z,27.07
2019-02-07T08:32:12.061Z,26.40
2019-02-07T08:34:42.040Z,30.57
2019-02-07T08:37:21.048Z,25.73
2019-02-07T08:40:07.630Z,25.47
2019-02-07T08:42:37.984Z,27.70
2019-02-07T08:45:16.481Z,23.20
2019-02-07T08:47:58.527Z,23.57
2019-02-07T08:50:43.124Z,23.30
2019-02-07T08:53:31.449Z,23.33
2019-02-07T08:56:04.123Z,22.47
2019-02-07T08:58:36.930Z,24.17
2019-02-07T09:01:23.430Z,23.13
2019-02-07T09:03:57.853Z,21.43
2019-02-07T09:06:28.259Z,22.93
2019-02-07T09:08:58.646Z,21.47
2019-02-07T09:11:44.074Z,25.30
2019-02-07T09:14:14.098Z,21.60
2019-02-07T09:16:49.959Z,24.00
2019-02-07T09:19:36.563Z,23.30
2019-02-07T09:22:15.572Z,26.07
2019-02-07T09:24:51.530Z,23.10
2019-02-07T09:27:38.176Z,24.33
2019-02-07T09:30:27.457Z,20.10
2019-02-07T09:32:57.522Z,21.03
2019-02-07T09:35:43.815Z,23.53
2019-02-07T09:38:29.963Z,24.27
2019-02-07T09:41:17.843Z,25.27
2019-02-07T09:44:04.024Z,23.93
2019-02-07T09:46:50.017Z,28.80
2019-02-07T09:49:36.334Z,27.67
2019-02-07T09:52:06.880Z,24.17
2019-02-07T09:54:36.905Z,27.53
2019-02-07T09:57:29.106Z,24.27
2019-02-07T10:00:01.703Z,25.77
2019-02-07T10:02:31.826Z,25.93
2019-02-07T10:05:07.953Z,28.40
2019-02-07T10:07:37.989Z,26.67
2019-02-07T10:10:14.734Z,26.23
2019-02-07T10:13:01.015Z,33.30
2019-02-07T10:15:36.847Z,35.27
2019-02-07T10:18:07.172Z,29.53
2019-02-07T10:20:39.954Z,27.50
2019-02-07T10:23:26.052Z,33.87
2019-02-07T10:26:13.089Z,28.57
2019-02-07T10:28:59.093Z,27.17
2019-02-07T10:31:45.648Z,28.97
2019-02-07T10:34:30.769Z,31.97
2019-02-07T10:37:00.785Z,30.67
2019-02-07T10:39:42.999Z,31.40
2019-02-07T10:42:15.890Z,27.40
2019-02-07T10:45:04.716Z,31.17
2019-02-07T10:47:37.890Z,28.53
2019-02-07T10:50:13.158Z,27.33
2019-02-07T10:52:45.875Z,35.57
2019-02-07T10:55:18.854Z,32.43
2019-02-07T10:57:51.542Z,30.87
2019-02-07T11:00:28.137Z,33.80
2019-02-07T11:03:14.469Z,30.17
2019-02-07T11:05:59.794Z,33.40
2019-02-07T11:08:47.858Z,39.67
2019-02-07T11:11:23.760Z,36.10
2019-02-07T11:13:56.852Z,34.83
2019-02-07T11:16:27.095Z,30.87
2019-02-07T11:19:20.920Z,25.43
2019-02-07T11:22:06.756Z,22.07
2019-02-07T11:24:54.997Z,23.60
2019-02-07T11:27:27.909Z,34.67
2019-02-07T11:30:03.903Z,33.90
2019-02-07T11:32:36.941Z,36.67
2019-02-07T11:35:13.790Z,34.57
2019-02-07T11:37:49.495Z,32.40
2019-02-07T11:40:28.812Z,33.53
2019-02-07T11:43:07.944Z,32.23
2019-02-07T11:45:38.016Z,35.77
2019-02-07T11:48:13.717Z,33.53
2019-02-07T11:50:53.034Z,31.50
2019-02-07T11:53:32.295Z,32.57
2019-02-07T11:56:05.471Z,32.70
2019-02-07T11:58:51.749Z,34.70
2019-02-07T12:01:38.006Z,40.97
2019-02-07T12:04:13.629Z,35.17
2019-02-07T12:06:49.561Z,33.53
2019-02-07T12:09:36.317Z,33.67
2019-02-07T12:12:06.515Z,31.13
2019-02-07T12:14:39.316Z,31.73
2019-02-07T12:17:26.078Z,35.53
2019-02-07T12:20:05.345Z,37.73
2019-02-07T12:22:37.362Z,38.90
2019-02-07T12:25:08.077Z,32.30
2019-02-07T12:27:40.685Z,30.10
2019-02-07T12:30:16.348Z,33.13
2019-02-07T12:32:46.406Z,39.13
2019-02-07T12:35:18.792Z,31.57
2019-02-07T12:38:07.358Z,33.93
2019-02-07T12:40:43.188Z,37.10
2019-02-07T12:43:15.710Z,34.07
2019-02-07T12:46:01.973Z,36.53
2019-02-07T12:48:41.122Z,36.77
2019-02-07T12:51:13.951Z,32.07
2019-02-07T12:53:56.193Z,38.33
2019-02-07T12:56:29.158Z,36.67
2019-02-07T12:58:59.150Z,36.03
2019-02-07T13:01:35.238Z,37.10
2019-02-07T13:04:20.646Z,40.23
2019-02-07T13:07:02.978Z,37.07
2019-02-07T13:09:35.713Z,39.03
2019-02-07T13:12:22.570Z,35.23
2019-02-07T13:14:55.275Z,41.77
2019-02-07T13:17:25.321Z,36.97
2019-02-07T13:20:10.287Z,36.23
2019-02-07T13:22:40.341Z,37.53
2019-02-07T13:25:26.097Z,36.97
2019-02-07T13:27:56.159Z,32.87
2019-02-07T13:30:38.217Z,34.17
2019-02-07T13:33:20.519Z,33.37
2019-02-07T13:35:50.643Z,35.37
2019-02-07T13:38:23.381Z,42.20
2019-02-07T13:40:56.610Z,36.70
2019-02-07T13:43:32.480Z,32.63
2019-02-07T13:46:17.505Z,32.43
2019-02-07T13:48:47.521Z,33.33
2019-02-07T13:51:17.540Z,33.93
2019-02-07T13:54:05.898Z,33.00
2019-02-07T13:56:54.525Z,34.27
2019-02-07T13:59:24.532Z,36.40
2019-02-07T14:02:06.502Z,33.17
2019-02-07T14:04:43.633Z,31.97
2019-02-07T14:07:13.930Z,36.77
2019-02-07T14:09:49.731Z,36.83
2019-02-07T14:12:22.513Z,34.50
2019-02-07T14:14:58.501Z,34.17
2019-02-07T14:17:28.830Z,37.27
2019-02-07T14:20:03.847Z,35.40
2019-02-07T14:22:33.494Z,37.00
2019-02-07T14:25:09.269Z,36.90
2019-02-07T14:27:39.261Z,43.37
2019-02-07T14:30:31.150Z,49.00
2019-02-07T14:33:03.973Z,43.13
2019-02-07T14:35:36.974Z,41.80
2019-02-07T14:38:07.384Z,45.23
2019-02-07T14:40:37.426Z,45.80
2019-02-07T14:43:07.523Z,50.70
2019-02-07T14:45:46.397Z,43.50
2019-02-07T14:48:22.420Z,47.30
2019-02-07T14:50:52.373Z,46.03
2019-02-07T14:53:20.735Z,56.83
2019-02-07T14:58:36.719Z,43.97
2019-02-07T15:01:05.688Z,41.27
2019-02-07T15:03:34.097Z,48.77
2019-02-07T15:06:02.458Z,42.10
2019-02-07T15:08:30.919Z,43.07
2019-02-07T15:11:47.982Z,39.20
2019-02-07T15:14:16.521Z,38.33
2019-02-07T15:16:44.860Z,34.47
2019-02-07T15:19:17.702Z,26.93
2019-02-07T15:21:46.190Z,31.87
2019-02-07T15:24:14.573Z,30.83
2019-02-07T15:26:42.953Z,25.30
2019-02-07T15:29:11.369Z,25.37
2019-02-07T15:31:39.863Z,29.70
2019-02-07T15:34:08.249Z,24.07
2019-02-07T15:36:36.676Z,24.83
2019-02-07T15:39:07.947Z,22.80
2019-02-07T15:41:36.314Z,25.43
2019-02-07T15:44:04.747Z,23.43
2019-02-07T15:46:33.254Z,20.93
2019-02-07T15:49:01.636Z,21.70
2019-02-07T15:51:30.014Z,13.27
2019-02-07T15:53:58.495Z,10.73
2019-02-07T15:56:27.228Z,8.60
2019-02-07T15:58:59.957Z,7.67
2019-02-07T16:01:29.997Z,7.47
2019-02-07T16:04:02.836Z,6.83
2019-02-07T16:06:31.439Z,8.87
2019-02-07T16:09:00.985Z,6.37
2019-02-07T16:11:29.457Z,7.30
2019-02-07T16:13:57.865Z,5.40
2019-02-07T16:16:26.244Z,6.87
2019-02-07T16:18:54.635Z,5.57
2019-02-07T16:21:23.030Z,5.23
2019-02-07T16:23:51.888Z,7.07
2019-02-07T16:26:20.267Z,6.80
2019-02-07T16:28:48.624Z,6.37
2019-02-07T16:31:17.056Z,5.07
2019-02-07T16:33:45.598Z,6.63
2019-02-07T16:36:13.958Z,5.50
2019-02-07T16:38:42.413Z,5.67
2019-02-07T16:41:11.073Z,6.40
2019-02-07T16:43:44.655Z,6.77
2019-02-07T16:46:13.125Z,6.13
2019-02-07T16:48:41.862Z,5.10
2019-02-07T16:51:10.406Z,8.80
2019-02-07T16:53:38.838Z,7.30
2019-02-07T16:56:07.215Z,6.27
2019-02-07T16:58:35.714Z,4.90
2019-02-07T17:01:04.256Z,5.47
2019-02-07T17:03:32.667Z,8.77
2019-02-07T17:06:01.076Z,11.40
2019-02-07T17:08:29.525Z,7.43
2019-02-07T17:10:58.312Z,7.33
2019-02-07T17:13:26.759Z,5.97
2019-02-07T17:15:55.182Z,4.30
2019-02-07T17:18:23.675Z,4.63
2019-02-07T17:20:52.008Z,8.03
2019-02-07T17:23:20.357Z,6.63
2019-02-07T17:25:48.801Z,6.00
2019-02-07T17:28:17.166Z,7.57
2019-02-07T17:30:45.639Z,5.63
2019-02-07T17:33:14.049Z,10.70
2019-02-07T17:35:42.441Z,5.97
2019-02-07T17:38:10.809Z,11.93
2019-02-07T17:40:39.209Z,22.63
2019-02-07T17:43:07.597Z,8.33
2019-02-07T17:45:36.744Z,8.40
2019-02-07T17:48:05.111Z,8.07
2019-02-07T17:50:38.315Z,11.37
2019-02-07T17:53:09.950Z,11.33
2019-02-07T17:55:38.470Z,9.87
2019-02-07T17:58:07.579Z,6.03
2019-02-07T18:00:52.818Z,8.00
2019-02-07T18:03:21.242Z,4.20
2019-02-07T18:05:49.713Z,7.60
2019-02-07T18:08:18.206Z,8.07
2019-02-07T18:10:47.077Z,5.50
2019-02-07T18:13:15.462Z,5.03
2019-02-07T18:15:43.958Z,8.97
2019-02-07T18:18:12.427Z,6.83
2019-02-07T18:20:40.958Z,6.43
2019-02-07T18:23:09.405Z,7.33
2019-02-07T18:25:37.882Z,6.87
2019-02-07T18:28:06.586Z,9.07
2019-02-07T18:30:34.982Z,8.83
2019-02-07T18:33:03.417Z,4.13
2019-02-07T18:35:31.790Z,4.10
2019-02-07T18:38:00.168Z,5.03
2019-02-07T18:40:30.459Z,10.23
2019-02-07T18:42:59.191Z,4.97
2019-02-07T18:45:27.522Z,5.03
2019-02-07T18:47:55.965Z,5.50
2019-02-07T18:50:27.357Z,7.57
2019-02-07T18:52:55.708Z,5.17
2019-02-07T18:55:24.101Z,9.20
2019-02-07T18:57:52.556Z,8.50
2019-02-07T19:00:24.362Z,10.20
2019-02-07T19:02:52.902Z,6.80
2019-02-07T19:05:22.532Z,6.53
2019-02-07T19:07:50.958Z,5.47
2019-02-07T19:10:21.069Z,6.27
2019-02-07T19:12:49.449Z,9.83
2019-02-07T19:15:24.224Z,10.67
2019-02-07T19:17:52.593Z,7.50
2019-02-07T19:20:21.029Z,7.00
2019-02-07T19:22:52.527Z,7.17
2019-02-07T19:25:20.953Z,9.60
2019-02-07T19:27:49.311Z,7.33
2019-02-07T19:30:23.445Z,9.67
2019-02-07T19:32:52.174Z,11.00
2019-02-07T19:35:20.546Z,7.20
2019-02-07T19:37:48.983Z,6.97
2019-02-07T19:40:19.049Z,7.23
2019-02-07T19:42:47.625Z,11.07
2019-02-07T19:45:18.234Z,8.97
2019-02-07T19:47:46.709Z,9.90
2019-02-07T19:50:26.235Z,8.50
2019-02-07T19:52:54.768Z,7.10
2019-02-07T19:55:25.774Z,8.40
2019-02-07T19:57:54.642Z,13.23
2019-02-07T20:00:34.811Z,9.40
2019-02-07T20:03:03.865Z,9.53
2019-02-07T20:05:32.237Z,7.43
2019-02-07T20:08:00.631Z,10.73
2019-02-07T20:10:35.202Z,8.17
2019-02-07T20:13:03.570Z,9.37
2019-02-07T20:15:40.289Z,8.33
2019-02-07T20:18:09.735Z,10.63
2019-02-07T20:20:38.357Z,10.80
2019-02-07T20:23:06.817Z,11.87
2019-02-07T20:25:35.303Z,7.63
2019-02-07T20:28:03.641Z,9.77
2019-02-07T20:30:40.453Z,9.53
2019-02-07T20:33:08.963Z,7.47
2019-02-07T20:35:37.447Z,6.57
2019-02-07T20:38:06.399Z,7.77
2019-02-07T20:40:34.778Z,6.20
2019-02-07T20:43:03.451Z,7.97
2019-02-07T20:45:31.867Z,6.97
2019-02-07T20:48:00.205Z,7.17
2019-02-07T20:50:28.941Z,9.23
2019-02-07T20:52:57.414Z,10.00
2019-02-07T20:55:25.965Z,7.67
2019-02-07T20:57:55.161Z,6.97
2019-02-07T21:00:29.428Z,11.17
2019-02-07T21:02:57.925Z,12.73
2019-02-07T21:05:26.965Z,7.47
2019-02-07T21:07:55.465Z,6.20
2019-02-07T21:10:26.754Z,7.93
2019-02-07T21:12:55.119Z,10.10
2019-02-07T21:15:24.314Z,8.00
2019-02-07T21:17:52.784Z,7.33
2019-02-07T21:20:26.195Z,5.20
2019-02-07T21:22:55.524Z,7.00
2019-02-07T21:25:29.564Z,6.23
2019-02-07T21:27:58.019Z,7.70
2019-02-07T21:30:29.768Z,8.60
2019-02-07T21:32:58.133Z,8.43
2019-02-07T21:35:27.049Z,7.87
2019-02-07T21:37:55.478Z,7.77
2019-02-07T21:40:25.761Z,6.27
2019-02-07T21:42:55.578Z,7.50
2019-02-07T21:45:24.013Z,8.80
2019-02-07T21:47:52.844Z,7.03
2019-02-07T21:50:27.006Z,7.73
2019-02-07T21:52:55.438Z,7.40
2019-02-07T21:55:25.985Z,8.07
2019-02-07T21:57:54.329Z,7.97
2019-02-07T22:00:30.602Z,6.00
2019-02-07T22:02:58.985Z,8.40
2019-02-07T22:05:27.612Z,6.53
2019-02-07T22:07:55.975Z,7.33
2019-02-07T22:10:27.542Z,7.50
2019-02-07T22:12:55.975Z,11.60
2019-02-07T22:15:26.843Z,7.53
2019-02-07T22:17:55.264Z,7.60
2019-02-07T22:20:27.842Z,10.77
2019-02-07T22:22:56.826Z,7.00
2019-02-07T22:25:25.305Z,9.40
2019-02-07T22:27:53.661Z,6.93
2019-02-07T22:30:25.091Z,8.23
2019-02-07T22:32:53.625Z,7.87
2019-02-07T22:35:21.973Z,7.93
2019-02-07T22:37:50.568Z,7.50
2019-02-07T22:40:20.961Z,6.53
2019-02-07T22:42:49.331Z,8.20
2019-02-07T22:45:23.537Z,6.93
2019-02-07T22:47:51.910Z,8.13
2019-02-07T22:50:25.280Z,8.10
2019-02-07T22:52:56.960Z,6.97
2019-02-07T22:55:24.025Z,5.97
2019-02-07T22:57:52.409Z,5.63
2019-02-07T23:00:37.943Z,7.27
2019-02-07T23:03:14.829Z,4.50
2019-02-07T23:05:43.172Z,3.60
2019-02-07T23:08:11.798Z,4.17
2019-02-07T23:10:41.780Z,6.57
2019-02-07T23:13:11.310Z,3.97
2019-02-07T23:15:39.602Z,3.80
2019-02-07T23:18:08.643Z,3.53
2019-02-07T23:20:37.006Z,3.30
2019-02-07T23:23:07.811Z,3.23
2019-02-07T23:25:36.171Z,4.57
2019-02-07T23:28:05.066Z,2.93
2019-02-07T23:30:33.470Z,2.87
2019-02-07T23:33:01.931Z,3.20
2019-02-07T23:35:30.379Z,2.83
2019-02-07T23:37:58.815Z,5.13
2019-02-07T23:40:27.171Z,5.30
2019-02-07T23:42:55.903Z,4.10
2019-02-07T23:45:24.541Z,4.57
2019-02-07T23:47:52.891Z,4.33
2019-02-07T23:50:21.268Z,6.20
2019-02-07T23:52:49.624Z,5.20
2019-02-07T23:55:18.005Z,5.17
2019-02-07T23:57:46.525Z,6.50
